createdAt,value
2019-01-28T00:01:30.360Z,96.04
2019-01-28T00:04:01.227Z,95.87
2019-01-28T00:06:31.701Z,95.83
2019-01-28T00:09:02.204Z,95.73
2019-01-28T00:11:32.836Z,95.84
2019-01-28T00:14:03.384Z,95.92
2019-01-28T00:16:33.868Z,95.82
2019-01-28T00:19:04.564Z,95.86
2019-01-28T00:21:35.123Z,95.90
2019-01-28T00:24:05.973Z,95.91
2019-01-28T00:26:36.512Z,95.73
2019-01-28T00:29:07.155Z,95.34
2019-01-28T00:31:37.785Z,95.29
2019-01-28T00:34:08.329Z,95.25
2019-01-28T00:36:38.833Z,95.25
2019-01-28T00:39:11.064Z,95.09
2019-01-28T00:41:41.627Z,95.12
2019-01-28T00:44:12.166Z,95.32
2019-01-28T00:46:42.688Z,95.44
2019-01-28T00:49:13.238Z,95.50
2019-01-28T00:51:43.728Z,95.30
2019-01-28T00:54:14.261Z,95.32
2019-01-28T00:56:44.832Z,95.37
2019-01-28T00:59:15.384Z,95.43
2019-01-28T01:01:45.854Z,95.13
2019-01-28T01:04:16.412Z,95.29
2019-01-28T01:06:46.941Z,95.28
2019-01-28T01:09:17.444Z,95.24
2019-01-28T01:11:47.981Z,95.28
2019-01-28T01:14:19.392Z,95.40
2019-01-28T01:16:50.717Z,95.43
2019-01-28T01:19:21.232Z,95.45
2019-01-28T01:21:51.715Z,95.44
2019-01-28T01:24:22.246Z,95.42
2019-01-28T01:26:52.779Z,95.47
2019-01-28T01:29:23.281Z,95.45
2019-01-28T01:31:53.778Z,95.31
2019-01-28T01:34:24.289Z,95.41
2019-01-28T01:36:54.822Z,95.58
2019-01-28T01:39:25.388Z,95.46
2019-01-28T01:41:55.881Z,95.46
2019-01-28T01:44:26.474Z,95.36
2019-01-28T01:46:57.008Z,95.42
2019-01-28T01:49:27.535Z,95.28
2019-01-28T01:51:58.094Z,95.07
2019-01-28T01:54:28.661Z,94.58
2019-01-28T01:56:59.199Z,94.32
2019-01-28T01:59:29.669Z,94.67
2019-01-28T02:02:00.248Z,94.14
2019-01-28T02:04:31.163Z,94.06
2019-01-28T02:07:01.637Z,93.96
2019-01-28T02:09:32.174Z,93.67
2019-01-28T02:12:02.667Z,93.54
2019-01-28T02:14:33.174Z,93.29
2019-01-28T02:17:03.738Z,92.80
2019-01-28T02:19:34.282Z,93.04
2019-01-28T02:22:04.787Z,93.05
2019-01-28T02:24:35.310Z,93.15
2019-01-28T02:27:05.832Z,93.19
2019-01-28T02:29:36.352Z,92.95
2019-01-28T02:32:06.918Z,93.13
2019-01-28T02:34:37.408Z,93.37
2019-01-28T02:37:07.938Z,93.58
2019-01-28T02:39:38.564Z,93.39
2019-01-28T02:42:09.093Z,93.39
2019-01-28T02:44:39.619Z,93.21
2019-01-28T02:47:10.158Z,93.33
2019-01-28T02:49:40.655Z,93.53
2019-01-28T02:52:11.171Z,93.50
2019-01-28T02:54:41.699Z,93.24
2019-01-28T02:57:12.199Z,93.17
2019-01-28T02:59:42.711Z,93.11
2019-01-28T03:02:13.257Z,92.87
2019-01-28T03:04:43.798Z,92.78
2019-01-28T03:07:14.280Z,92.85
2019-01-28T03:09:44.800Z,92.94
2019-01-28T03:12:15.327Z,92.47
2019-01-28T03:14:45.860Z,92.57
2019-01-28T03:17:16.397Z,92.91
2019-01-28T03:19:46.912Z,92.91
2019-01-28T03:22:17.433Z,92.43
2019-01-28T03:24:47.973Z,92.13
2019-01-28T03:27:18.479Z,92.60
2019-01-28T03:29:48.996Z,92.80
2019-01-28T03:32:19.537Z,92.81
2019-01-28T03:34:50.203Z,92.29
2019-01-28T03:37:20.692Z,92.19
2019-01-28T03:39:51.228Z,92.01
2019-01-28T03:42:21.753Z,92.04
2019-01-28T03:44:52.270Z,92.11
2019-01-28T03:47:22.793Z,91.64
2019-01-28T03:49:53.311Z,91.41
2019-01-28T03:52:24.065Z,91.53
2019-01-28T03:54:54.591Z,91.22
2019-01-28T03:57:25.129Z,91.11
2019-01-28T03:59:55.644Z,91.34
2019-01-28T04:02:26.207Z,91.11
2019-01-28T04:04:56.704Z,91.24
2019-01-28T04:07:27.243Z,91.42
2019-01-28T04:09:57.764Z,91.51
2019-01-28T04:12:28.258Z,91.46
2019-01-28T04:14:58.788Z,91.50
2019-01-28T04:17:29.433Z,91.65
2019-01-28T04:19:59.937Z,91.85
2019-01-28T04:22:30.449Z,91.50
2019-01-28T04:25:01.023Z,91.67
2019-01-28T04:27:31.568Z,91.74
2019-01-28T04:30:02.103Z,91.89
2019-01-28T04:32:32.632Z,91.48
2019-01-28T04:35:03.168Z,91.20
2019-01-28T04:37:33.695Z,91.55
2019-01-28T04:40:04.941Z,91.24
2019-01-28T04:42:35.567Z,91.50
2019-01-28T04:45:09.015Z,91.63
2019-01-28T04:47:39.573Z,91.52
2019-01-28T04:50:15.781Z,91.77
2019-01-28T04:52:46.410Z,91.97
2019-01-28T04:55:17.421Z,91.99
2019-01-28T04:57:48.146Z,92.10
2019-01-28T05:00:21.675Z,92.03
2019-01-28T05:02:52.421Z,92.05
2019-01-28T05:05:23.057Z,92.11
2019-01-28T05:07:58.976Z,92.17
2019-01-28T05:10:29.514Z,92.25
2019-01-28T05:13:00.057Z,92.35
2019-01-28T05:15:30.624Z,92.11
2019-01-28T05:18:01.358Z,92.27
2019-01-28T05:20:31.953Z,91.85
2019-01-28T05:23:02.525Z,92.09
2019-01-28T05:25:33.045Z,92.37
2019-01-28T05:28:03.558Z,92.52
2019-01-28T05:30:34.226Z,92.43
2019-01-28T05:33:04.829Z,92.57
2019-01-28T05:35:35.335Z,92.48
2019-01-28T05:38:06.100Z,92.44
2019-01-28T05:40:36.647Z,92.47
2019-01-28T05:43:07.337Z,92.18
2019-01-28T05:45:37.956Z,92.49
2019-01-28T05:48:08.486Z,92.27
2019-01-28T05:50:39.023Z,92.65
2019-01-28T05:53:09.619Z,92.53
2019-01-28T05:55:40.130Z,92.29
2019-01-28T05:58:10.711Z,91.98
2019-01-28T06:00:44.008Z,92.07
2019-01-28T06:03:14.684Z,92.12
2019-01-28T06:05:46.640Z,91.92
2019-01-28T06:08:17.192Z,91.91
2019-01-28T06:10:47.745Z,92.20
2019-01-28T06:13:18.320Z,92.25
2019-01-28T06:15:48.898Z,91.91
2019-01-28T06:18:19.511Z,91.98
2019-01-28T06:20:50.006Z,91.88
2019-01-28T06:23:20.541Z,92.20
2019-01-28T06:25:51.068Z,92.46
2019-01-28T06:28:21.606Z,92.46
2019-01-28T06:30:52.114Z,92.46
2019-01-28T06:33:22.636Z,92.41
2019-01-28T06:35:53.128Z,92.22
2019-01-28T06:38:23.811Z,92.38
2019-01-28T06:40:54.301Z,92.30
2019-01-28T06:43:24.853Z,92.48
2019-01-28T06:45:55.397Z,92.53
2019-01-28T06:48:25.942Z,92.31
2019-01-28T06:50:56.458Z,92.41
2019-01-28T06:53:27.102Z,92.74
2019-01-28T06:55:57.611Z,92.68
2019-01-28T06:58:28.161Z,92.66
2019-01-28T07:00:58.756Z,92.84
2019-01-28T07:03:29.249Z,93.09
2019-01-28T07:05:59.774Z,93.29
2019-01-28T07:08:30.372Z,93.29
2019-01-28T07:11:00.883Z,93.42
2019-01-28T07:13:31.383Z,93.63
2019-01-28T07:16:02.405Z,93.95
2019-01-28T07:18:32.974Z,93.87
2019-01-28T07:21:03.477Z,93.82
2019-01-28T07:23:34.040Z,93.63
2019-01-28T07:26:04.579Z,93.70
2019-01-28T07:28:35.105Z,93.73
2019-01-28T07:31:05.714Z,93.75
2019-01-28T07:33:36.392Z,93.94
2019-01-28T07:36:06.902Z,94.03
2019-01-28T07:38:37.496Z,94.01
2019-01-28T07:41:08.006Z,94.18
2019-01-28T07:43:38.585Z,94.28
2019-01-28T07:46:09.132Z,94.43
2019-01-28T07:48:39.694Z,94.18
2019-01-28T07:51:10.292Z,94.27
2019-01-28T07:53:41.052Z,94.32
2019-01-28T07:56:11.573Z,94.38
2019-01-28T07:58:42.108Z,94.49
2019-01-28T08:01:12.688Z,94.63
2019-01-28T08:03:43.272Z,94.56
2019-01-28T08:06:13.963Z,94.40
2019-01-28T08:08:44.647Z,94.31
2019-01-28T08:11:15.179Z,94.18
2019-01-28T08:13:45.674Z,94.09
2019-01-28T08:16:16.217Z,93.97
2019-01-28T08:18:46.772Z,93.81
2019-01-28T08:21:17.287Z,93.81
2019-01-28T08:23:47.873Z,93.78
2019-01-28T08:26:18.369Z,93.14
2019-01-28T08:28:49.000Z,93.18
2019-01-28T08:31:19.560Z,93.28
2019-01-28T08:33:50.046Z,93.17
2019-01-28T08:36:20.642Z,92.99
2019-01-28T08:38:51.183Z,92.92
2019-01-28T08:41:21.730Z,92.97
2019-01-28T08:43:52.259Z,92.66
2019-01-28T08:46:22.819Z,92.76
2019-01-28T08:48:53.423Z,92.96
2019-01-28T08:51:23.942Z,93.31
2019-01-28T08:53:54.501Z,93.05
2019-01-28T08:56:25.054Z,93.14
2019-01-28T08:58:55.539Z,92.92
2019-01-28T09:01:26.081Z,93.05
2019-01-28T09:03:56.602Z,92.95
2019-01-28T09:06:27.153Z,93.02
2019-01-28T09:08:57.774Z,93.03
2019-01-28T09:11:28.327Z,92.90
2019-01-28T09:13:59.024Z,92.98
2019-01-28T09:16:29.593Z,92.99
2019-01-28T09:19:00.226Z,92.89
2019-01-28T09:21:30.784Z,92.85
2019-01-28T09:24:01.464Z,92.31
2019-01-28T09:26:32.047Z,92.16
2019-01-28T09:29:02.612Z,92.64
2019-01-28T09:31:33.246Z,92.30
2019-01-28T09:34:03.967Z,92.30
2019-01-28T09:36:34.532Z,92.57
2019-01-28T09:39:08.009Z,92.94
2019-01-28T09:41:38.523Z,92.84
2019-01-28T09:44:09.122Z,92.09
2019-01-28T09:46:39.650Z,92.26
2019-01-28T09:49:10.175Z,92.22
2019-01-28T09:51:40.709Z,91.75
2019-01-28T09:54:11.205Z,91.76
2019-01-28T09:56:41.702Z,91.35
2019-01-28T09:59:12.194Z,91.59
2019-01-28T10:01:42.688Z,91.49
2019-01-28T10:04:13.200Z,91.54
2019-01-28T10:06:43.693Z,91.47
2019-01-28T10:09:14.212Z,91.38
2019-01-28T10:11:44.708Z,91.24
2019-01-28T10:14:15.193Z,91.02
2019-01-28T10:16:45.715Z,91.00
2019-01-28T10:19:16.257Z,90.98
2019-01-28T10:21:46.751Z,91.34
2019-01-28T10:24:17.249Z,91.24
2019-01-28T10:26:47.885Z,91.22
2019-01-28T10:29:18.387Z,90.88
2019-01-28T10:31:48.913Z,91.02
2019-01-28T10:34:19.447Z,90.91
2019-01-28T10:36:50.020Z,90.69
2019-01-28T10:39:20.570Z,90.23
2019-01-28T10:41:51.126Z,90.28
2019-01-28T10:44:21.619Z,90.33
2019-01-28T10:46:52.127Z,90.24
2019-01-28T10:49:22.596Z,89.91
2019-01-28T10:51:53.125Z,89.63
2019-01-28T10:54:23.710Z,89.53
2019-01-28T10:56:54.194Z,89.56
2019-01-28T10:59:24.695Z,89.64
2019-01-28T11:01:55.232Z,89.54
2019-01-28T11:04:25.745Z,89.22
2019-01-28T11:06:56.249Z,88.85
2019-01-28T11:09:26.795Z,89.11
2019-01-28T11:11:57.436Z,89.25
2019-01-28T11:14:27.969Z,89.61
2019-01-28T11:16:58.695Z,89.61
2019-01-28T11:19:29.373Z,89.71
2019-01-28T11:21:59.909Z,90.09
2019-01-28T11:24:30.492Z,89.82
2019-01-28T11:27:01.131Z,89.67
2019-01-28T11:29:31.752Z,89.87
2019-01-28T11:32:02.362Z,89.78
2019-01-28T11:34:33.108Z,90.20
2019-01-28T11:37:03.647Z,90.36
2019-01-28T11:39:34.444Z,89.74
2019-01-28T11:42:05.258Z,90.12
2019-01-28T11:44:35.882Z,89.84
2019-01-28T11:47:06.519Z,89.82
2019-01-28T11:49:37.156Z,90.07
2019-01-28T11:52:07.617Z,89.93
2019-01-28T11:54:38.104Z,89.98
2019-01-28T11:57:08.570Z,90.32
2019-01-28T11:59:39.067Z,90.41
2019-01-28T12:02:09.652Z,90.41
2019-01-28T12:04:40.159Z,90.40
2019-01-28T12:07:10.629Z,90.69
2019-01-28T12:09:41.174Z,90.60
2019-01-28T12:12:11.638Z,91.05
2019-01-28T12:14:42.169Z,90.93
2019-01-28T12:17:12.770Z,90.92
2019-01-28T12:19:43.267Z,90.56
2019-01-28T12:22:13.755Z,90.96
2019-01-28T12:24:44.289Z,91.20
2019-01-28T12:27:14.792Z,91.18
2019-01-28T12:29:45.249Z,91.13
2019-01-28T12:32:15.756Z,90.99
2019-01-28T12:34:46.232Z,90.88
2019-01-28T12:37:16.743Z,90.85
2019-01-28T12:39:47.399Z,90.99
2019-01-28T12:42:17.870Z,90.72
2019-01-28T12:44:48.370Z,90.87
2019-01-28T12:47:18.904Z,90.75
2019-01-28T12:49:49.398Z,90.41
2019-01-28T12:52:19.868Z,89.86
2019-01-28T12:54:50.365Z,89.68
2019-01-28T12:57:20.845Z,89.12
2019-01-28T12:59:51.365Z,89.18
2019-01-28T13:02:21.833Z,89.51
2019-01-28T13:04:52.382Z,89.68
2019-01-28T13:07:22.951Z,89.49
2019-01-28T13:09:53.540Z,89.56
2019-01-28T13:12:24.018Z,89.57
2019-01-28T13:14:54.562Z,89.78
2019-01-28T13:17:25.042Z,89.78
2019-01-28T13:19:55.596Z,89.56
2019-01-28T13:22:26.054Z,89.33
2019-01-28T13:24:56.583Z,89.94
2019-01-28T13:27:27.143Z,89.99
2019-01-28T13:29:57.624Z,89.82
2019-01-28T13:32:28.141Z,90.52
2019-01-28T13:34:58.620Z,90.35
2019-01-28T13:37:29.245Z,90.26
2019-01-28T13:39:59.735Z,89.74
2019-01-28T13:42:30.360Z,90.26
2019-01-28T13:45:00.886Z,90.76
2019-01-28T13:47:31.387Z,90.96
2019-01-28T13:50:01.952Z,90.89
2019-01-28T13:52:32.465Z,91.23
2019-01-28T13:55:02.937Z,91.61
2019-01-28T13:57:33.725Z,91.59
2019-01-28T14:00:07.466Z,91.69
2019-01-28T14:02:38.075Z,91.68
2019-01-28T14:05:09.610Z,91.78
2019-01-28T14:07:49.019Z,91.58
2019-01-28T14:10:19.854Z,92.01
2019-01-28T14:12:50.594Z,91.83
2019-01-28T14:15:34.453Z,92.02
2019-01-28T14:18:05.385Z,91.83
2019-01-28T14:20:36.160Z,91.81
2019-01-28T14:23:07.112Z,91.98
2019-01-28T14:25:37.870Z,92.37
2019-01-28T14:28:10.234Z,91.95
2019-01-28T14:30:46.976Z,91.44
2019-01-28T14:33:17.507Z,91.62
2019-01-28T14:35:48.103Z,91.40
2019-01-28T14:38:19.021Z,91.46
2019-01-28T14:40:49.859Z,91.39
2019-01-28T14:43:20.386Z,91.36
2019-01-28T14:45:50.971Z,91.49
2019-01-28T14:48:21.498Z,91.68
2019-01-28T14:50:52.656Z,91.80
2019-01-28T14:53:23.336Z,92.08
2019-01-28T14:55:53.944Z,92.00
2019-01-28T14:58:24.680Z,92.03
2019-01-28T15:00:55.322Z,92.38
2019-01-28T15:03:25.856Z,92.31
2019-01-28T15:05:56.427Z,92.51
2019-01-28T15:08:27.003Z,92.38
2019-01-28T15:10:57.547Z,92.60
2019-01-28T15:13:28.144Z,92.30
2019-01-28T15:15:58.754Z,92.74
2019-01-28T15:18:29.281Z,93.47
2019-01-28T15:20:59.894Z,93.74
2019-01-28T15:23:30.555Z,94.30
2019-01-28T15:26:01.129Z,94.74
2019-01-28T15:28:31.718Z,94.87
2019-01-28T15:31:02.346Z,95.04
2019-01-28T15:33:33.120Z,94.90
2019-01-28T15:36:03.694Z,94.64
2019-01-28T15:38:34.277Z,94.79
2019-01-28T16:11:59.509Z,95.44
2019-01-28T16:14:36.793Z,95.49
2019-01-28T16:17:07.571Z,95.42
2019-01-28T16:19:38.488Z,95.45
2019-01-28T16:22:09.233Z,95.41
2019-01-28T16:24:39.854Z,95.41
2019-01-28T16:27:10.428Z,95.42
2019-01-28T16:29:41.347Z,95.36
2019-01-28T16:32:11.401Z,95.58
2019-01-28T16:34:42.011Z,95.73
2019-01-28T16:37:12.550Z,95.80
2019-01-28T16:39:43.159Z,95.76
2019-01-28T16:42:13.812Z,95.92
2019-01-28T16:44:44.429Z,96.00
2019-01-28T16:47:15.262Z,96.06
2019-01-28T16:49:45.838Z,96.10
2019-01-28T16:52:16.659Z,96.03
2019-01-28T16:54:47.344Z,95.98
2019-01-28T16:57:18.045Z,95.98
2019-01-28T16:59:48.628Z,95.71
2019-01-28T17:02:19.382Z,95.61
2019-01-28T17:04:50.468Z,95.34
2019-01-28T17:07:21.202Z,94.95
2019-01-28T17:09:51.839Z,94.99
2019-01-28T17:12:22.495Z,94.89
2019-01-28T17:14:53.052Z,94.94
2019-01-28T17:17:23.910Z,95.08
2019-01-28T17:19:54.609Z,94.88
2019-01-28T17:22:25.404Z,94.78
2019-01-28T17:24:55.928Z,94.32
2019-01-28T17:27:40.416Z,94.31
2019-01-28T17:30:33.987Z,94.50
2019-01-28T17:33:13.411Z,94.74
2019-01-28T17:35:47.966Z,94.60
2019-01-28T17:38:27.597Z,94.48
2019-01-28T17:40:58.232Z,94.02
2019-01-28T17:43:29.072Z,93.66
2019-01-28T17:45:59.669Z,93.82
2019-01-28T17:48:30.287Z,93.71
2019-01-28T17:51:00.870Z,93.92
2019-01-28T17:53:31.471Z,94.34
2019-01-28T17:56:02.080Z,94.70
2019-01-28T17:58:32.588Z,94.52
2019-01-28T18:01:03.262Z,94.52
2019-01-28T18:03:34.237Z,94.91
2019-01-28T18:06:04.996Z,95.10
2019-01-28T18:08:35.696Z,95.26
2019-01-28T18:11:06.941Z,95.27
2019-01-28T18:13:43.382Z,95.23
2019-01-28T18:16:14.231Z,95.54
2019-01-28T18:18:44.920Z,95.44
2019-01-28T18:21:15.778Z,95.40
2019-01-28T18:23:52.292Z,95.50
2019-01-28T18:26:23.408Z,95.52
2019-01-28T18:28:53.947Z,95.76
2019-01-28T18:31:24.595Z,95.47
2019-01-28T18:33:55.192Z,95.51
2019-01-28T18:36:26.224Z,95.22
2019-01-28T18:38:56.863Z,95.52
2019-01-28T18:41:27.593Z,95.44
2019-01-28T18:43:58.282Z,95.47
2019-01-28T18:46:28.915Z,95.72
2019-01-28T18:48:59.628Z,96.04
2019-01-28T18:51:30.283Z,96.33
2019-01-28T18:54:01.324Z,96.26
2019-01-28T18:56:32.427Z,96.44
2019-01-28T18:59:03.164Z,96.71
2019-01-28T19:01:33.824Z,96.80
2019-01-28T19:04:05.249Z,96.57
2019-01-28T19:06:50.213Z,96.30
2019-01-28T19:09:33.143Z,96.43
2019-01-28T19:12:21.574Z,96.41
2019-01-28T19:15:11.158Z,95.76
2019-01-28T19:18:08.249Z,96.04
2019-01-28T19:21:08.111Z,96.45
2019-01-28T19:23:37.068Z,96.15
2019-01-28T19:26:08.005Z,96.26
2019-01-28T19:28:38.812Z,96.35
2019-01-28T19:31:09.644Z,96.24
2019-01-28T19:33:40.569Z,96.21
2019-01-28T19:36:11.858Z,95.88
2019-01-28T19:38:43.574Z,95.87
2019-01-28T19:41:14.528Z,95.92
2019-01-28T19:43:45.335Z,95.80
2019-01-28T19:46:16.345Z,96.12
2019-01-28T19:48:47.418Z,96.13
2019-01-28T19:51:18.226Z,96.06
2019-01-28T19:53:49.104Z,96.33
2019-01-28T19:56:19.873Z,96.42
2019-01-28T19:58:51.099Z,96.47
2019-01-28T20:01:21.922Z,96.37
2019-01-28T20:03:56.747Z,96.40
2019-01-28T20:06:27.340Z,95.98
2019-01-28T20:09:22.270Z,95.58
2019-01-28T20:11:53.091Z,95.24
2019-01-28T20:14:27.406Z,95.14
2019-01-28T20:16:58.558Z,94.97
2019-01-28T20:19:30.083Z,95.15
2019-01-28T20:22:00.978Z,94.81
2019-01-28T20:24:32.069Z,94.87
2019-01-28T20:27:02.912Z,95.00
2019-01-28T20:29:34.936Z,94.73
2019-01-28T20:32:06.020Z,94.67
2019-01-28T20:34:43.326Z,94.21
2019-01-28T20:37:11.878Z,93.83
2019-01-28T20:39:42.571Z,93.47
2019-01-28T20:42:15.987Z,93.11
2019-01-28T20:44:56.165Z,93.21
2019-01-28T20:47:27.436Z,92.93
2019-01-28T20:49:58.449Z,92.75
2019-01-28T20:52:29.191Z,92.20
2019-01-28T20:55:00.566Z,91.61
2019-01-28T20:57:32.375Z,91.73
2019-01-28T21:00:03.333Z,91.66
2019-01-28T21:02:34.266Z,91.41
2019-01-28T21:05:05.575Z,91.16
2019-01-28T21:07:36.339Z,91.31
2019-01-28T21:10:09.873Z,91.58
2019-01-28T21:12:40.588Z,91.31
2019-01-28T21:15:14.213Z,91.46
2019-01-28T21:17:46.076Z,91.05
2019-01-28T21:20:18.460Z,91.19
2019-01-28T21:22:49.764Z,91.01
2019-01-28T21:25:23.157Z,91.03
2019-01-28T21:27:54.069Z,90.51
2019-01-28T21:30:31.517Z,90.17
2019-01-28T21:33:02.415Z,90.30
2019-01-28T21:35:52.158Z,90.10
2019-01-28T21:38:28.393Z,89.82
2019-01-28T21:43:27.539Z,90.02
2019-01-28T21:45:58.020Z,90.05
2019-01-28T21:48:28.516Z,90.24
2019-01-28T21:50:59.217Z,90.28
2019-01-28T21:53:29.686Z,90.87
2019-01-28T21:56:00.177Z,90.74
2019-01-28T21:58:30.770Z,91.15
2019-01-28T22:01:01.150Z,91.26
2019-01-28T22:03:31.731Z,91.08
2019-01-28T22:06:02.318Z,91.27
2019-01-28T22:08:32.844Z,91.31
2019-01-28T22:11:03.494Z,91.32
2019-01-28T22:13:34.102Z,91.41
2019-01-28T22:16:04.845Z,91.37
2019-01-28T22:18:35.359Z,91.61
2019-01-28T22:21:13.095Z,91.97
2019-01-28T22:23:44.218Z,91.94
2019-01-28T22:26:14.709Z,91.94
2019-01-28T22:28:45.331Z,91.94
2019-01-28T22:31:15.880Z,91.94
2019-01-28T22:33:46.440Z,92.01
2019-01-28T22:36:17.034Z,92.24
2019-01-28T22:38:48.171Z,92.13
2019-01-28T22:41:19.003Z,92.32
2019-01-28T22:43:49.586Z,92.19
2019-01-28T22:46:20.156Z,92.16
2019-01-28T22:48:50.769Z,92.03
2019-01-28T22:51:21.331Z,92.28
2019-01-28T22:53:51.912Z,92.46
2019-01-28T22:56:22.434Z,92.34
2019-01-28T22:58:52.993Z,92.34
2019-01-28T23:01:30.402Z,92.60
2019-01-28T23:04:00.921Z,92.56
2019-01-28T23:06:31.399Z,92.55
2019-01-28T23:09:01.924Z,92.49
2019-01-28T23:11:32.463Z,92.43
2019-01-28T23:14:02.970Z,92.53
2019-01-28T23:16:33.487Z,92.52
2019-01-28T23:19:04.023Z,92.58
2019-01-28T23:21:34.908Z,92.45
2019-01-28T23:24:08.032Z,92.58
2019-01-28T23:26:38.573Z,92.72
2019-01-28T23:29:09.087Z,92.59
2019-01-28T23:31:39.581Z,92.42
2019-01-28T23:34:10.290Z,92.44
2019-01-28T23:36:40.839Z,92.54
2019-01-28T23:39:11.327Z,92.52
2019-01-28T23:41:41.891Z,92.52
2019-01-28T23:44:12.574Z,92.54
2019-01-28T23:46:43.045Z,92.55
2019-01-28T23:49:13.572Z,92.47
2019-01-28T23:51:44.097Z,92.46
2019-01-28T23:54:14.598Z,92.45
2019-01-28T23:56:45.135Z,92.48
2019-01-28T23:59:15.659Z,92.33
